Time;durP1;ratioP1;P1;durP2;ratioP2;P2;SDS_P1;SDS_P2;PMS_P1;PMS_P2;Temp;Humidity;BMP_temperature;BMP_pressure;BME280_temperature;BME280_humidity;BME280_pressure;Samples;Min_cycle;Max_cycle;Signal;HPM_P1;HPM_P2
2022/03/27 00:02:13;;;;;;;30.53;13.63;;;;;;;;;;4967407;28;20305;-78
2022/03/27 00:04:41;;;;;;;32.73;13.83;;;;;;;;;;4979621;28;20251;-76
2022/03/27 00:07:06;;;;;;;30.03;14.97;;;;;;;;;;4967021;28;20317;-78
2022/03/27 00:09:32;;;;;;;32.90;14.70;;;;;;;;;;4990294;28;20316;-77
2022/03/27 00:12:04;;;;;;;30.30;14.30;;;;;;;;;;4950052;28;20226;-78
2022/03/27 00:14:34;;;;;;;29.37;14.73;;;;;;;;;;4995093;28;20235;-78
2022/03/27 00:17:00;;;;;;;31.60;15.00;;;;;;;;;;5002171;28;20230;-79
2022/03/27 00:19:27;;;;;;;30.57;14.73;;;;;;;;;;4933014;28;20240;-77
2022/03/27 00:21:58;;;;;;;39.77;15.37;;;;;;;;;;4967291;28;20237;-77
2022/03/27 00:24:23;;;;;;;32.57;15.00;;;;;;;;;;4982715;28;20321;-76
2022/03/27 00:26:49;;;;;;;38.03;16.07;;;;;;;;;;4991534;28;20229;-79
2022/03/27 00:29:18;;;;;;;38.77;16.87;;;;;;;;;;4995853;28;20284;-77
2022/03/27 00:31:44;;;;;;;38.40;17.20;;;;;;;;;;4969102;28;20221;-77
2022/03/27 00:34:27;;;;;;;46.17;17.30;;;;;;;;;;4976586;28;20214;-77
2022/03/27 00:36:55;;;;;;;44.73;18.80;;;;;;;;;;4975536;28;20229;-79
2022/03/27 00:39:20;;;;;;;37.93;17.83;;;;;;;;;;4992256;28;20229;-78
2022/03/27 00:41:46;;;;;;;36.83;17.97;;;;;;;;;;4994864;28;20222;-77
2022/03/27 00:44:21;;;;;;;33.93;15.37;;;;;;;;;;4981124;28;20234;-79
2022/03/27 00:46:47;;;;;;;35.73;16.73;;;;;;;;;;4958102;28;20225;-78
2022/03/27 00:49:17;;;;;;;36.23;16.17;;;;;;;;;;4996397;28;20711;-78
2022/03/27 00:51:44;;;;;;;37.23;17.63;;;;;;;;;;5001787;28;20228;-78
2022/03/27 00:54:12;;;;;;;39.70;15.97;;;;;;;;;;4976193;28;20281;-78
2022/03/27 00:56:38;;;;;;;34.30;15.90;;;;;;;;;;4976959;28;20233;-77
2022/03/27 00:59:41;;;;;;;37.47;16.70;;;;;;;;;;4979095;28;20702;-77
2022/03/27 01:02:10;;;;;;;37.13;16.57;;;;;;;;;;4983904;28;20229;-77
2022/03/27 01:04:52;;;;;;;39.77;16.33;;;;;;;;;;4984321;28;20218;-79
2022/03/27 01:07:34;;;;;;;38.73;15.73;;;;;;;;;;4927511;28;20229;-79
2022/03/27 01:10:13;;;;;;;30.53;14.67;;;;;;;;;;4973777;28;20217;-79
2022/03/27 01:12:43;;;;;;;32.37;15.70;;;;;;;;;;4979753;28;20716;-78
2022/03/27 01:15:31;;;;;;;32.70;15.70;;;;;;;;;;5003130;28;20233;-78
2022/03/27 01:17:59;;;;;;;32.70;15.50;;;;;;;;;;4995418;28;20218;-77
2022/03/27 01:20:35;;;;;;;31.97;15.43;;;;;;;;;;4971769;28;20813;-77
2022/03/27 01:23:01;;;;;;;32.60;16.97;;;;;;;;;;4971795;28;20274;-78
2022/03/27 01:25:28;;;;;;;35.67;16.33;;;;;;;;;;4987863;28;20217;-76
2022/03/27 01:27:56;;;;;;;38.27;17.40;;;;;;;;;;4976933;28;20248;-79
2022/03/27 01:30:22;;;;;;;30.37;16.03;;;;;;;;;;4996399;28;20723;-78
2022/03/27 01:32:51;;;;;;;31.17;16.27;;;;;;;;;;4996476;28;20602;-77
2022/03/27 01:35:18;;;;;;;31.77;15.50;;;;;;;;;;4989733;28;20232;-79
2022/03/27 01:37:46;;;;;;;31.97;14.47;;;;;;;;;;4983460;28;20233;-76
2022/03/27 01:40:25;;;;;;;30.83;15.47;;;;;;;;;;4985177;28;20597;-78
2022/03/27 01:42:55;;;;;;;31.90;14.83;;;;;;;;;;4968329;28;20233;-79
2022/03/27 01:45:23;;;;;;;33.73;15.77;;;;;;;;;;4988528;28;20247;-78
2022/03/27 01:47:48;;;;;;;37.87;15.57;;;;;;;;;;4987078;28;20235;-79
2022/03/27 01:50:14;;;;;;;35.60;16.03;;;;;;;;;;4974645;28;20318;-77
2022/03/27 01:52:40;;;;;;;33.63;15.60;;;;;;;;;;4995972;28;20272;-76
2022/03/27 01:55:07;;;;;;;35.43;16.00;;;;;;;;;;5005879;28;20241;-79
2022/03/27 01:57:35;;;;;;;31.03;15.87;;;;;;;;;;4991884;28;20233;-77
2022/03/27 02:00:04;;;;;;;30.57;15.53;;;;;;;;;;4978763;28;20225;-77
2022/03/27 02:02:42;;;;;;;33.40;15.40;;;;;;;;;;4978651;28;20218;-78
2022/03/27 02:05:16;;;;;;;32.00;15.63;;;;;;;;;;4977480;28;20583;-79
2022/03/27 02:10:50;;;;;;;34.03;16.10;;;;;;;;;;4952876;28;20317;-80
2022/03/27 02:13:25;;;;;;;36.40;16.63;;;;;;;;;;4953162;28;23018;-77
2022/03/27 02:15:55;;;;;;;37.20;17.33;;;;;;;;;;4972091;28;20696;-78
2022/03/27 02:18:27;;;;;;;37.67;17.13;;;;;;;;;;4965266;28;20229;-79
2022/03/27 02:21:00;;;;;;;34.23;16.87;;;;;;;;;;4989140;28;20240;-78
2022/03/27 02:23:39;;;;;;;36.60;16.70;;;;;;;;;;4975800;28;20225;-79
2022/03/27 02:26:11;;;;;;;28.27;15.10;;;;;;;;;;4964050;28;20316;-78
2022/03/27 02:28:52;;;;;;;31.63;15.93;;;;;;;;;;4980470;28;20237;-79
2022/03/27 02:31:20;;;;;;;32.70;14.77;;;;;;;;;;4950022;28;20264;-77
2022/03/27 02:33:45;;;;;;;34.17;15.50;;;;;;;;;;4962425;28;20876;-79
2022/03/27 02:36:16;;;;;;;35.23;16.37;;;;;;;;;;5002080;28;20249;-77
2022/03/27 02:39:09;;;;;;;31.37;16.20;;;;;;;;;;4978425;28;20221;-77
2022/03/27 02:41:36;;;;;;;35.57;16.67;;;;;;;;;;4974314;28;20225;-77
2022/03/27 02:44:16;;;;;;;35.00;16.83;;;;;;;;;;5004115;28;20222;-76
2022/03/27 02:46:52;;;;;;;32.30;17.03;;;;;;;;;;4966897;28;20230;-79
2022/03/27 02:49:21;;;;;;;33.37;16.57;;;;;;;;;;4959436;28;20228;-76
2022/03/27 02:51:53;;;;;;;37.03;15.40;;;;;;;;;;4982974;28;20217;-77
2022/03/27 02:54:24;;;;;;;37.00;16.93;;;;;;;;;;4959283;28;20234;-78
2022/03/27 02:56:50;;;;;;;32.23;17.17;;;;;;;;;;4994551;28;20230;-78
2022/03/27 02:59:29;;;;;;;;;;;;;;;;;;;;;
2022/03/27 03:02:16;;;;;;;38.53;16.73;;;;;;;;;;5005175;28;20229;-78
2022/03/27 03:05:11;;;;;;;31.67;15.23;;;;;;;;;;4997414;28;20225;-78
2022/03/27 03:07:43;;;;;;;31.30;15.60;;;;;;;;;;4996187;28;20292;-79
2022/03/27 03:10:17;;;;;;;30.57;16.27;;;;;;;;;;4971090;28;20220;-78
2022/03/27 03:12:45;;;;;;;25.50;15.47;;;;;;;;;;4987531;28;20261;-79
2022/03/27 03:15:11;;;;;;;33.63;17.03;;;;;;;;;;4989624;28;20223;-78
2022/03/27 03:17:37;;;;;;;33.80;16.40;;;;;;;;;;4992002;28;20225;-77
2022/03/27 03:20:06;;;;;;;33.77;16.77;;;;;;;;;;4966487;28;20226;-76
2022/03/27 03:22:32;;;;;;;33.60;16.97;;;;;;;;;;4976370;28;20257;-78
2022/03/27 03:24:58;;;;;;;32.33;17.03;;;;;;;;;;4976118;28;20229;-78
2022/03/27 03:27:23;;;;;;;35.80;17.00;;;;;;;;;;4998155;28;20296;-77
2022/03/27 03:29:51;;;;;;;32.03;16.30;;;;;;;;;;4973770;28;20225;-77
2022/03/27 03:32:23;;;;;;;31.97;16.60;;;;;;;;;;4977313;28;20219;-78
2022/03/27 03:34:53;;;;;;;33.90;17.47;;;;;;;;;;4993547;28;20244;-78
2022/03/27 03:37:19;;;;;;;29.90;16.23;;;;;;;;;;5013398;28;20640;-78
2022/03/27 03:39:47;;;;;;;33.17;17.33;;;;;;;;;;5010750;28;20244;-78
2022/03/27 03:42:16;;;;;;;32.00;18.10;;;;;;;;;;4999435;28;20233;-79
2022/03/27 03:44:42;;;;;;;30.80;16.73;;;;;;;;;;5010116;28;20245;-77
2022/03/27 03:47:10;;;;;;;37.70;17.73;;;;;;;;;;4983461;28;20232;-77
2022/03/27 03:49:40;;;;;;;29.00;16.63;;;;;;;;;;4992286;28;20708;-78
2022/03/27 03:52:06;;;;;;;36.23;16.93;;;;;;;;;;5002556;28;20236;-77
2022/03/27 03:54:35;;;;;;;32.30;17.43;;;;;;;;;;4996307;28;20221;-76
2022/03/27 03:57:04;;;;;;;32.50;16.90;;;;;;;;;;5014429;28;20230;-77
2022/03/27 03:59:33;;;;;;;35.53;17.53;;;;;;;;;;4996620;28;20253;-78
2022/03/27 04:01:59;;;;;;;37.93;17.93;;;;;;;;;;5024487;28;20245;-76
2022/03/27 04:04:24;;;;;;;39.63;18.73;;;;;;;;;;5003433;28;20210;-77
2022/03/27 04:06:49;;;;;;;39.33;18.90;;;;;;;;;;5018645;28;20321;-76
2022/03/27 04:09:20;;;;;;;41.07;18.83;;;;;;;;;;4995567;28;20213;-78
2022/03/27 04:11:47;;;;;;;36.17;18.17;;;;;;;;;;4992727;28;20238;-78
2022/03/27 04:14:15;;;;;;;41.53;18.60;;;;;;;;;;4984203;28;20225;-79
2022/03/27 04:16:41;;;;;;;36.70;18.83;;;;;;;;;;4993829;28;20238;-77
2022/03/27 04:19:06;;;;;;;38.97;19.40;;;;;;;;;;5012078;28;20225;-77
2022/03/27 04:21:34;;;;;;;34.50;18.53;;;;;;;;;;5014785;28;20308;-78
2022/03/27 04:24:02;;;;;;;32.53;18.43;;;;;;;;;;5002363;28;20241;-77
2022/03/27 04:26:29;;;;;;;34.07;18.37;;;;;;;;;;5008938;28;20308;-78
2022/03/27 04:28:59;;;;;;;33.90;20.00;;;;;;;;;;4996658;28;20222;-78
2022/03/27 04:31:31;;;;;;;40.10;20.60;;;;;;;;;;4988613;28;20252;-77
2022/03/27 04:33:56;;;;;;;35.57;18.40;;;;;;;;;;4965565;28;20657;-77
2022/03/27 04:36:22;;;;;;;44.13;18.17;;;;;;;;;;4990799;28;20249;-77
2022/03/27 04:38:48;;;;;;;38.67;17.40;;;;;;;;;;4964615;28;20699;-78
2022/03/27 04:41:44;;;;;;;37.10;18.43;;;;;;;;;;4976118;28;20260;-75
2022/03/27 04:44:14;;;;;;;33.33;17.63;;;;;;;;;;4992957;28;20288;-77
2022/03/27 04:46:42;;;;;;;40.40;18.63;;;;;;;;;;4981730;28;20217;-76
2022/03/27 04:49:07;;;;;;;41.43;18.90;;;;;;;;;;4986341;28;20596;-79
2022/03/27 04:51:33;;;;;;;36.77;18.80;;;;;;;;;;4994923;28;20248;-78
2022/03/27 04:54:01;;;;;;;34.03;18.63;;;;;;;;;;5002271;28;20234;-77
2022/03/27 04:56:26;;;;;;;35.47;18.10;;;;;;;;;;4998795;28;21081;-79
2022/03/27 04:58:52;;;;;;;34.37;18.47;;;;;;;;;;4992698;28;20265;-78
2022/03/27 05:01:22;;;;;;;37.63;19.63;;;;;;;;;;4993008;28;20308;-78
2022/03/27 05:03:48;;;;;;;36.63;19.20;;;;;;;;;;4990774;28;20229;-79
2022/03/27 05:06:19;;;;;;;39.10;20.87;;;;;;;;;;4988350;28;20291;-77
2022/03/27 05:08:47;;;;;;;37.37;19.03;;;;;;;;;;5003178;28;20246;-77
2022/03/27 05:11:13;;;;;;;34.77;19.27;;;;;;;;;;4983695;28;20224;-78
2022/03/27 05:13:38;;;;;;;43.33;21.30;;;;;;;;;;5012919;28;20258;-78
2022/03/27 05:16:04;;;;;;;38.13;20.17;;;;;;;;;;5014573;28;20249;-78
2022/03/27 05:18:32;;;;;;;43.30;19.97;;;;;;;;;;4977229;28;20281;-78
2022/03/27 05:21:02;;;;;;;37.43;19.73;;;;;;;;;;5014036;28;20232;-77
2022/03/27 05:23:31;;;;;;;42.43;20.73;;;;;;;;;;5009181;28;20233;-77
2022/03/27 05:25:56;;;;;;;53.23;21.40;;;;;;;;;;4997221;28;20221;-80
2022/03/27 05:28:22;;;;;;;42.80;20.90;;;;;;;;;;5018346;28;20248;-77
2022/03/27 05:30:47;;;;;;;42.60;21.67;;;;;;;;;;5012193;28;20298;-76
2022/03/27 05:33:15;;;;;;;47.73;19.97;;;;;;;;;;5028719;28;20245;-76
2022/03/27 05:35:44;;;;;;;47.20;21.27;;;;;;;;;;5027678;28;20236;-76
2022/03/27 05:38:12;;;;;;;45.50;20.90;;;;;;;;;;5021998;28;20238;-75
2022/03/27 05:40:40;;;;;;;42.77;21.37;;;;;;;;;;5027035;28;20222;-77
2022/03/27 05:43:06;;;;;;;42.57;21.80;;;;;;;;;;5026139;28;20210;-77
2022/03/27 05:45:35;;;;;;;36.93;20.67;;;;;;;;;;5020808;28;20222;-76
2022/03/27 05:48:03;;;;;;;42.53;20.53;;;;;;;;;;5011603;28;20193;-77
2022/03/27 05:50:33;;;;;;;37.20;19.37;;;;;;;;;;5023349;28;20225;-76
2022/03/27 05:53:01;;;;;;;25.43;17.10;;;;;;;;;;5028836;28;20209;-77
2022/03/27 05:55:29;;;;;;;31.13;17.23;;;;;;;;;;4991612;28;20222;-78
2022/03/27 05:57:55;;;;;;;25.60;16.53;;;;;;;;;;4972627;28;20237;-76
2022/03/27 06:00:21;;;;;;;31.27;17.00;;;;;;;;;;5013565;28;20231;-78
2022/03/27 06:02:47;;;;;;;27.50;16.80;;;;;;;;;;4991358;28;20283;-78
2022/03/27 06:05:17;;;;;;;26.30;16.57;;;;;;;;;;4987447;28;20273;-79
2022/03/27 06:07:49;;;;;;;30.67;17.23;;;;;;;;;;5004143;28;20225;-79
2022/03/27 06:10:22;;;;;;;34.73;19.20;;;;;;;;;;4981905;28;20247;-77
2022/03/27 06:12:48;;;;;;;36.03;19.70;;;;;;;;;;4981577;28;20244;-79
2022/03/27 06:15:14;;;;;;;33.90;19.37;;;;;;;;;;4972190;28;20218;-79
2022/03/27 06:17:42;;;;;;;36.70;19.37;;;;;;;;;;4988145;28;20331;-79
2022/03/27 06:20:12;;;;;;;35.50;20.13;;;;;;;;;;4981004;28;20225;-79
2022/03/27 06:22:40;;;;;;;32.93;18.97;;;;;;;;;;4971721;28;20233;-78
2022/03/27 06:25:10;;;;;;;35.33;18.93;;;;;;;;;;4988099;28;20225;-79
2022/03/27 06:27:38;;;;;;;40.87;19.97;;;;;;;;;;4989676;28;20299;-76
2022/03/27 06:30:06;;;;;;;35.83;19.33;;;;;;;;;;4984229;28;20230;-79
2022/03/27 06:32:31;;;;;;;36.73;20.13;;;;;;;;;;4955969;28;20305;-79
2022/03/27 06:34:57;;;;;;;34.47;20.23;;;;;;;;;;4986579;28;20230;-79
2022/03/27 06:37:26;;;;;;;37.63;19.83;;;;;;;;;;4983453;28;20221;-79
2022/03/27 06:39:51;;;;;;;34.27;19.50;;;;;;;;;;4980403;28;20223;-78
2022/03/27 06:42:19;;;;;;;40.30;21.17;;;;;;;;;;5004818;28;20217;-78
2022/03/27 06:44:45;;;;;;;33.57;19.20;;;;;;;;;;5004886;28;20229;-79
2022/03/27 06:47:10;;;;;;;38.50;20.13;;;;;;;;;;4984132;28;20232;-79
2022/03/27 06:49:41;;;;;;;34.13;19.80;;;;;;;;;;5006703;28;20245;-78
2022/03/27 06:52:07;;;;;;;34.20;18.03;;;;;;;;;;5005854;28;20237;-77
2022/03/27 06:54:36;;;;;;;26.83;17.80;;;;;;;;;;4968494;28;20675;-78
2022/03/27 06:57:02;;;;;;;28.13;17.30;;;;;;;;;;4991964;28;20234;-80
2022/03/27 06:59:28;;;;;;;28.23;17.20;;;;;;;;;;4990942;28;20229;-79
2022/03/27 07:04:40;;;;;;;28.47;17.73;;;;;;;;;;4985342;28;20272;-78
2022/03/27 07:07:05;;;;;;;28.57;18.03;;;;;;;;;;4981276;28;20241;-79
2022/03/27 07:09:33;;;;;;;29.00;18.53;;;;;;;;;;4983202;28;20226;-78
2022/03/27 07:12:01;;;;;;;28.80;18.20;;;;;;;;;;4969742;28;20217;-79
2022/03/27 07:14:29;;;;;;;29.23;17.83;;;;;;;;;;4989969;28;20210;-79
2022/03/27 07:16:59;;;;;;;26.10;18.10;;;;;;;;;;5001572;28;20273;-80
2022/03/27 07:19:25;;;;;;;30.03;18.23;;;;;;;;;;4984864;28;20711;-78
2022/03/27 07:21:50;;;;;;;37.97;17.97;;;;;;;;;;4991576;28;20222;-80
2022/03/27 07:24:16;;;;;;;34.43;19.17;;;;;;;;;;4998649;28;20233;-78
2022/03/27 07:26:46;;;;;;;28.23;18.73;;;;;;;;;;4953764;28;20276;-79
2022/03/27 07:29:11;;;;;;;32.40;18.67;;;;;;;;;;4975122;28;20225;-79
2022/03/27 07:31:41;;;;;;;30.80;17.93;;;;;;;;;;4980354;28;20218;-79
2022/03/27 07:34:07;;;;;;;28.60;17.87;;;;;;;;;;4970330;28;20245;-80
2022/03/27 07:36:38;;;;;;;25.67;17.97;;;;;;;;;;4948645;28;20234;-80
2022/03/27 07:39:04;;;;;;;26.40;16.13;;;;;;;;;;4999804;28;20250;-79
2022/03/27 07:41:31;;;;;;;30.17;16.57;;;;;;;;;;4976551;28;20222;-77
2022/03/27 07:44:02;;;;;;;32.20;17.53;;;;;;;;;;4997577;28;20248;-78
2022/03/27 07:46:30;;;;;;;27.03;17.10;;;;;;;;;;4992732;28;20317;-79
2022/03/27 07:48:56;;;;;;;30.47;18.33;;;;;;;;;;4979316;28;20221;-79
2022/03/27 07:51:21;;;;;;;24.43;17.60;;;;;;;;;;5011726;28;22560;-78
2022/03/27 07:53:49;;;;;;;25.20;17.27;;;;;;;;;;4973337;28;20233;-79
2022/03/27 07:56:20;;;;;;;22.97;17.13;;;;;;;;;;4992127;28;20798;-77
2022/03/27 07:58:48;;;;;;;27.27;16.10;;;;;;;;;;5006343;28;20269;-79
2022/03/27 08:01:15;;;;;;;22.23;16.07;;;;;;;;;;5006315;28;20308;-79
2022/03/27 08:03:46;;;;;;;21.53;14.60;;;;;;;;;;5001823;28;20253;-78
2022/03/27 08:06:17;;;;;;;21.33;15.60;;;;;;;;;;4980641;28;20258;-78
2022/03/27 08:08:42;;;;;;;27.30;18.03;;;;;;;;;;4993956;28;20233;-78
2022/03/27 08:11:09;;;;;;;23.80;17.37;;;;;;;;;;4993009;28;20465;-76
2022/03/27 08:13:38;;;;;;;26.63;18.23;;;;;;;;;;4992071;28;20217;-78
2022/03/27 08:16:04;;;;;;;27.13;17.13;;;;;;;;;;4993314;28;20234;-78
2022/03/27 08:18:30;;;;;;;23.80;17.37;;;;;;;;;;4983317;28;20232;-79
2022/03/27 08:20:56;;;;;;;26.43;16.90;;;;;;;;;;4977402;28;20260;-79
2022/03/27 08:23:35;;;;;;;22.47;16.87;;;;;;;;;;4988995;28;21733;-77
2022/03/27 08:28:54;;;;;;;21.27;17.03;;;;;;;;;;4994684;28;20244;-78
2022/03/27 08:32:00;;;;;;;23.97;17.17;;;;;;;;;;4992316;28;20218;-77
2022/03/27 08:34:40;;;;;;;22.43;16.70;;;;;;;;;;4978461;28;20301;-78
2022/03/27 08:37:40;;;;;;;22.60;17.10;;;;;;;;;;4976606;28;20229;-79
2022/03/27 08:40:11;;;;;;;20.13;15.97;;;;;;;;;;4979711;28;20277;-79
2022/03/27 08:42:43;;;;;;;21.23;16.20;;;;;;;;;;4975945;28;20226;-79
2022/03/27 08:45:09;;;;;;;22.13;16.17;;;;;;;;;;4992666;28;20230;-79
2022/03/27 08:47:34;;;;;;;20.60;15.93;;;;;;;;;;4995060;28;20233;-77
2022/03/27 08:50:13;;;;;;;22.33;16.03;;;;;;;;;;5013420;28;20225;-77
2022/03/27 08:52:51;;;;;;;21.77;16.23;;;;;;;;;;5010542;28;20293;-79
2022/03/27 08:55:38;;;;;;;20.23;15.57;;;;;;;;;;4979867;28;20217;-78
2022/03/27 08:58:03;;;;;;;16.47;14.03;;;;;;;;;;5000033;28;20253;-79
2022/03/27 09:00:34;;;;;;;18.87;14.60;;;;;;;;;;5003860;28;20227;-78
2022/03/27 09:03:07;;;;;;;14.80;12.33;;;;;;;;;;4980815;28;20233;-79
2022/03/27 09:05:38;;;;;;;15.20;13.00;;;;;;;;;;4953014;28;20253;-79
2022/03/27 09:08:09;;;;;;;15.30;12.57;;;;;;;;;;4996049;28;20228;-78
2022/03/27 09:10:35;;;;;;;13.47;12.00;;;;;;;;;;4998257;28;20226;-80
2022/03/27 09:13:03;;;;;;;17.37;13.40;;;;;;;;;;4994420;28;20217;-78
2022/03/27 09:15:30;;;;;;;17.20;13.20;;;;;;;;;;4995098;28;20230;-78
2022/03/27 09:18:08;;;;;;;16.70;13.77;;;;;;;;;;5013168;28;20260;-78
2022/03/27 09:20:47;;;;;;;16.50;14.17;;;;;;;;;;4965877;28;20248;-77
2022/03/27 09:23:24;;;;;;;16.10;14.33;;;;;;;;;;4998940;28;20227;-78
2022/03/27 09:25:51;;;;;;;15.43;13.83;;;;;;;;;;4996350;28;20279;-77
2022/03/27 09:28:30;;;;;;;18.63;14.10;;;;;;;;;;4992678;28;20224;-78
2022/03/27 09:30:57;;;;;;;14.57;12.67;;;;;;;;;;5008751;28;20229;-78
2022/03/27 09:34:02;;;;;;;15.00;13.37;;;;;;;;;;5002800;28;20218;-77
2022/03/27 09:36:35;;;;;;;14.70;13.13;;;;;;;;;;4984258;28;20232;-80
2022/03/27 09:39:13;;;;;;;14.33;12.10;;;;;;;;;;5000284;28;20287;-80
2022/03/27 09:41:41;;;;;;;16.50;13.20;;;;;;;;;;4997386;28;20276;-79
2022/03/27 09:44:08;;;;;;;16.23;13.13;;;;;;;;;;5001097;28;20236;-79
2022/03/27 09:46:50;;;;;;;14.87;12.80;;;;;;;;;;5011307;28;20276;-79
2022/03/27 09:49:20;;;;;;;16.13;13.90;;;;;;;;;;4988548;28;20241;-79
2022/03/27 09:51:59;;;;;;;16.83;14.30;;;;;;;;;;4985343;28;20214;-78
2022/03/27 09:54:29;;;;;;;16.60;14.80;;;;;;;;;;4996581;28;20217;-79
2022/03/27 09:56:55;;;;;;;17.70;14.83;;;;;;;;;;5005121;28;20741;-77
2022/03/27 09:59:32;;;;;;;17.00;14.43;;;;;;;;;;4993384;28;20232;-77
2022/03/27 10:02:17;;;;;;;18.07;15.47;;;;;;;;;;5003351;28;20217;-78
2022/03/27 10:05:04;;;;;;;17.53;14.93;;;;;;;;;;4999863;28;20272;-76
2022/03/27 10:07:35;;;;;;;17.13;13.60;;;;;;;;;;4999898;28;20233;-78
2022/03/27 10:10:04;;;;;;;15.27;13.40;;;;;;;;;;4994223;28;20230;-77
2022/03/27 10:12:31;;;;;;;15.27;13.67;;;;;;;;;;5018398;28;20246;-77
2022/03/27 10:14:59;;;;;;;18.00;13.80;;;;;;;;;;5005393;28;20222;-78
2022/03/27 10:17:28;;;;;;;17.57;13.97;;;;;;;;;;4983131;28;20272;-78
2022/03/27 10:19:56;;;;;;;16.10;13.90;;;;;;;;;;4987197;28;20226;-78
2022/03/27 10:22:25;;;;;;;17.00;13.87;;;;;;;;;;4993318;28;21824;-79
2022/03/27 10:24:57;;;;;;;16.33;14.63;;;;;;;;;;4978559;28;20218;-79
2022/03/27 10:27:23;;;;;;;15.40;13.43;;;;;;;;;;4997795;28;20225;-79
2022/03/27 10:29:49;;;;;;;16.80;14.10;;;;;;;;;;4979781;28;20217;-77
2022/03/27 10:32:14;;;;;;;17.00;13.17;;;;;;;;;;5063973;23;20241;-77
2022/03/27 10:38:35;;;;;;;17.00;13.13;;;;;;;;;;4965918;28;20220;-79
2022/03/27 10:41:21;;;;;;;18.10;13.57;;;;;;;;;;4970421;28;20260;-75
2022/03/27 10:44:00;;;;;;;16.67;13.60;;;;;;;;;;4981281;28;21184;-77
2022/03/27 10:46:38;;;;;;;14.40;12.93;;;;;;;;;;4966363;28;20219;-79
2022/03/27 10:49:13;;;;;;;16.17;12.80;;;;;;;;;;4951203;28;20249;-78
2022/03/27 10:51:57;;;;;;;14.23;12.73;;;;;;;;;;4957548;28;20223;-79
2022/03/27 10:54:24;;;;;;;15.00;13.17;;;;;;;;;;4945025;28;20231;-80
2022/03/27 10:56:54;;;;;;;16.03;13.27;;;;;;;;;;4961431;28;20326;-79
2022/03/27 10:59:42;;;;;;;16.03;13.40;;;;;;;;;;4951318;28;20254;-79
2022/03/27 11:05:02;;;;;;;16.97;13.43;;;;;;;;;;4951465;28;20227;-78
2022/03/27 11:07:47;;;;;;;15.73;12.73;;;;;;;;;;4952780;28;20207;-79
2022/03/27 11:10:52;;;;;;;13.97;12.50;;;;;;;;;;4943075;28;20768;-78
2022/03/27 11:13:30;;;;;;;17.03;12.10;;;;;;;;;;4951241;28;20285;-78
2022/03/27 11:16:09;;;;;;;15.77;12.90;;;;;;;;;;4960146;28;20230;-78
2022/03/27 11:18:41;;;;;;;15.93;13.50;;;;;;;;;;4962614;28;20227;-78
2022/03/27 11:21:29;;;;;;;16.27;13.10;;;;;;;;;;4959936;28;20218;-78
2022/03/27 11:24:07;;;;;;;17.63;13.53;;;;;;;;;;4977251;28;20227;-79
2022/03/27 11:26:34;;;;;;;16.03;14.00;;;;;;;;;;4958198;28;20222;-77
2022/03/27 11:29:22;;;;;;;15.87;13.90;;;;;;;;;;4957098;28;20254;-78
2022/03/27 11:32:08;;;;;;;15.80;13.70;;;;;;;;;;4934760;28;20643;-78
2022/03/27 11:34:37;;;;;;;19.13;14.03;;;;;;;;;;4944083;28;20276;-79
2022/03/27 11:37:25;;;;;;;16.93;13.43;;;;;;;;;;4976488;28;20223;-79
2022/03/27 11:39:54;;;;;;;15.73;12.53;;;;;;;;;;4942652;28;20231;-78
2022/03/27 11:42:28;;;;;;;17.57;13.27;;;;;;;;;;4937505;28;20229;-76
2022/03/27 11:45:17;;;;;;;14.90;13.13;;;;;;;;;;4953645;28;20218;-77
2022/03/27 11:47:47;;;;;;;15.93;13.97;;;;;;;;;;4935817;28;20337;-79
2022/03/27 11:50:31;;;;;;;16.53;13.33;;;;;;;;;;4950157;28;20226;-76
2022/03/27 11:52:57;;;;;;;15.70;13.83;;;;;;;;;;4972521;28;20245;-78
2022/03/27 11:55:23;;;;;;;17.03;13.87;;;;;;;;;;4954527;28;20315;-77
2022/03/27 11:57:55;;;;;;;14.23;12.73;;;;;;;;;;4973307;28;20245;-76
2022/03/27 12:00:47;;;;;;;19.67;14.17;;;;;;;;;;4948751;28;20234;-77
2022/03/27 12:03:15;;;;;;;16.07;13.57;;;;;;;;;;4949405;28;20231;-76
2022/03/27 12:05:42;;;;;;;16.27;14.07;;;;;;;;;;4950009;28;20282;-79
2022/03/27 12:08:08;;;;;;;17.43;14.17;;;;;;;;;;4941370;28;20742;-78
2022/03/27 12:10:46;;;;;;;17.20;14.07;;;;;;;;;;4952826;28;20217;-81
2022/03/27 12:13:15;;;;;;;16.47;13.50;;;;;;;;;;4954295;28;20237;-78
2022/03/27 12:15:46;;;;;;;15.43;13.00;;;;;;;;;;4939919;28;20226;-79
2022/03/27 12:18:27;;;;;;;15.37;13.30;;;;;;;;;;4968498;28;20222;-78
2022/03/27 12:21:00;;;;;;;15.07;12.97;;;;;;;;;;4971315;28;20313;-78
2022/03/27 12:23:30;;;;;;;16.47;12.80;;;;;;;;;;4953628;28;20238;-78
2022/03/27 12:31:53;;;;;;;14.90;13.03;;;;;;;;;;4952069;28;20227;-80
2022/03/27 12:35:05;;;;;;;14.37;12.73;;;;;;;;;;4931642;28;20214;-78
2022/03/27 12:37:52;;;;;;;16.63;13.30;;;;;;;;;;4959407;28;20231;-77
2022/03/27 12:40:32;;;;;;;16.73;12.93;;;;;;;;;;4933711;28;20281;-78
2022/03/27 12:43:12;;;;;;;16.70;13.43;;;;;;;;;;4965216;28;20315;-81
2022/03/27 12:45:51;;;;;;;18.10;14.10;;;;;;;;;;4932272;28;21530;-76
2022/03/27 12:48:28;;;;;;;17.63;13.70;;;;;;;;;;4959448;28;20226;-78
2022/03/27 12:50:56;;;;;;;16.10;13.73;;;;;;;;;;4956035;28;20238;-78
2022/03/27 12:53:28;;;;;;;18.90;13.97;;;;;;;;;;4951148;28;20223;-80
2022/03/27 12:55:57;;;;;;;15.37;13.10;;;;;;;;;;4938368;28;20219;-78
2022/03/27 12:58:32;;;;;;;15.13;13.13;;;;;;;;;;4973690;28;20258;-80
2022/03/27 13:01:10;;;;;;;17.08;14.35;;;;;;;;;;4948697;28;20467;-73
2022/03/27 13:03:42;;;;;;;17.43;13.53;;;;;;;;;;4953271;28;20233;-74
2022/03/27 13:06:09;;;;;;;18.57;13.53;;;;;;;;;;4911038;28;20617;-76
2022/03/27 13:08:39;;;;;;;17.60;14.10;;;;;;;;;;4943529;28;20697;-74
2022/03/27 13:11:20;;;;;;;17.23;14.23;;;;;;;;;;4946720;28;20259;-76
2022/03/27 13:13:50;;;;;;;17.00;13.90;;;;;;;;;;4953083;28;20253;-75
2022/03/27 13:16:35;;;;;;;18.87;13.73;;;;;;;;;;4952860;28;20237;-75
2022/03/27 13:19:04;;;;;;;17.47;12.90;;;;;;;;;;4937833;28;20258;-73
2022/03/27 13:21:35;;;;;;;16.17;13.43;;;;;;;;;;4949424;28;20222;-74
2022/03/27 13:24:33;;;;;;;54.73;15.03;;;;;;;;;;4959096;28;20246;-75
2022/03/27 13:27:04;;;;;;;22.97;17.90;;;;;;;;;;4967454;28;20230;-76
2022/03/27 13:29:50;;;;;;;18.17;13.47;;;;;;;;;;4943787;29;20242;-77
2022/03/27 13:32:18;;;;;;;69.80;16.73;;;;;;;;;;4947672;28;20257;-76
2022/03/27 13:34:44;;;;;;;15.80;12.23;;;;;;;;;;4949623;28;20218;-75
2022/03/27 13:37:13;;;;;;;15.20;12.00;;;;;;;;;;4967209;28;20232;-76
2022/03/27 13:39:39;;;;;;;16.48;11.98;;;;;;;;;;4971815;28;20227;-76
2022/03/27 13:44:48;;;;;;;17.77;12.10;;;;;;;;;;4963167;28;20340;-74
2022/03/27 13:47:15;;;;;;;15.60;11.97;;;;;;;;;;4954943;28;20222;-74
2022/03/27 13:49:40;;;;;;;15.50;11.87;;;;;;;;;;4974473;28;20226;-74
2022/03/27 13:52:10;;;;;;;16.83;12.73;;;;;;;;;;4962217;28;20219;-73
2022/03/27 13:54:38;;;;;;;12.53;11.07;;;;;;;;;;4962122;28;20226;-73
2022/03/27 13:57:04;;;;;;;13.43;11.30;;;;;;;;;;4965617;28;20230;-74
2022/03/27 13:59:30;;;;;;;11.93;10.70;;;;;;;;;;4962416;28;20241;-73
2022/03/27 14:02:08;;;;;;;13.80;11.67;;;;;;;;;;4963522;28;20439;-72
2022/03/27 14:04:41;;;;;;;16.97;11.90;;;;;;;;;;4946294;28;20458;-74
2022/03/27 14:07:14;;;;;;;14.57;10.97;;;;;;;;;;4961142;28;20276;-74
2022/03/27 14:09:43;;;;;;;13.20;10.83;;;;;;;;;;4939187;28;20215;-75
2022/03/27 14:12:10;;;;;;;12.90;10.67;;;;;;;;;;4969006;28;20306;-74
2022/03/27 14:14:38;;;;;;;13.47;10.30;;;;;;;;;;4972673;28;20776;-74
2022/03/27 14:17:07;;;;;;;15.17;10.83;;;;;;;;;;4955223;28;20227;-73
2022/03/27 14:19:39;;;;;;;13.70;10.73;;;;;;;;;;4952363;28;20242;-77
2022/03/27 14:22:05;;;;;;;14.27;11.23;;;;;;;;;;4949933;28;20226;-74
2022/03/27 14:24:31;;;;;;;16.47;11.90;;;;;;;;;;4956857;28;20234;-76
2022/03/27 14:27:11;;;;;;;15.33;12.20;;;;;;;;;;4955405;28;20223;-76
2022/03/27 14:29:37;;;;;;;14.47;11.60;;;;;;;;;;4941298;28;20226;-75
2022/03/27 14:32:06;;;;;;;12.37;9.90;;;;;;;;;;4969050;28;20289;-75
2022/03/27 14:34:36;;;;;;;13.53;9.73;;;;;;;;;;4969399;28;20218;-75
2022/03/27 14:37:13;;;;;;;14.63;11.00;;;;;;;;;;4937093;28;20338;-75
2022/03/27 14:39:39;;;;;;;15.02;11.23;;;;;;;;;;4953828;28;20218;-76
2022/03/27 14:42:05;;;;;;;15.32;10.95;;;;;;;;;;4952846;28;20750;-73
2022/03/27 14:44:31;;;;;;;14.77;10.98;;;;;;;;;;4953541;28;20210;-73
2022/03/27 14:47:03;;;;;;;14.43;11.27;;;;;;;;;;4953302;28;20250;-76
2022/03/27 14:49:28;;;;;;;14.50;9.68;;;;;;;;;;4959012;28;20238;-74
2022/03/27 14:51:57;;;;;;;12.07;8.55;;;;;;;;;;4960792;28;20226;-75
2022/03/27 14:57:07;;;;;;;9.95;7.78;;;;;;;;;;4961201;28;20291;-75
2022/03/27 14:59:33;;;;;;;8.40;7.05;;;;;;;;;;4957809;28;20242;-74
2022/03/27 15:02:01;;;;;;;8.88;7.18;;;;;;;;;;4954966;28;20318;-74
2022/03/27 15:04:26;;;;;;;8.97;7.23;;;;;;;;;;4955141;28;20223;-74
2022/03/27 15:06:54;;;;;;;11.75;8.55;;;;;;;;;;4936797;28;20240;-74
2022/03/27 15:09:23;;;;;;;10.70;8.45;;;;;;;;;;4940406;28;20291;-75